Time;durP1;ratioP1;P1;durP2;ratioP2;P2;SDS_P1;SDS_P2;PMS_P1;PMS_P2;Temp;Humidity;BMP_temperature;BMP_pressure;BME280_temperature;BME280_humidity;BME280_pressure;Samples;Min_cycle;Max_cycle;Signal;HPM_P1;HPM_P2
2022/07/07 00:01:10;;;;;;;3.03;1.58;;;;;;;18.70;53.95;99260.59;4924281;28;103328;-55
2022/07/07 00:03:38;;;;;;;2.25;1.30;;;;;;;18.75;53.29;99261.84;4925513;28;104231;-55
2022/07/07 00:06:06;;;;;;;1.85;1.40;;;;;;;18.73;53.75;99261.16;4925824;28;102715;-55
2022/07/07 00:08:35;;;;;;;2.15;1.50;;;;;;;18.70;53.89;99256.09;4925038;28;102702;-55
2022/07/07 00:11:03;;;;;;;2.55;1.40;;;;;;;18.80;53.57;99258.75;4925273;28;103441;-55
2022/07/07 00:13:31;;;;;;;1.42;1.10;;;;;;;18.85;53.21;99259.13;4925021;28;103220;-55
2022/07/07 00:15:59;;;;;;;1.40;1.20;;;;;;;18.93;53.52;99257.38;4923998;28;103053;-55
2022/07/07 00:18:27;;;;;;;2.63;1.50;;;;;;;18.97;53.30;99248.09;4923445;28;103350;-56
2022/07/07 00:20:56;;;;;;;1.87;1.37;;;;;;;18.89;53.94;99253.31;4922870;28;103108;-56
2022/07/07 00:23:24;;;;;;;2.33;1.45;;;;;;;18.90;53.88;99257.69;4924676;28;103372;-56
2022/07/07 00:25:55;;;;;;;2.08;1.70;;;;;;;18.68;54.43;99257.25;4924338;28;102657;-56
2022/07/07 00:28:23;;;;;;;2.05;1.40;;;;;;;18.77;54.64;99259.88;4923871;28;103474;-56
2022/07/07 00:30:50;;;;;;;2.60;1.55;;;;;;;18.80;54.17;99256.91;4922551;28;103284;-55
2022/07/07 00:33:18;;;;;;;3.30;1.73;;;;;;;18.54;55.33;99245.19;4905940;28;104136;-55
2022/07/07 00:35:46;;;;;;;1.63;1.20;;;;;;;18.78;54.45;99245.50;4924685;28;102613;-55
2022/07/07 00:38:14;;;;;;;2.60;1.60;;;;;;;18.51;54.98;99248.16;4923659;28;102682;-55
2022/07/07 00:40:43;;;;;;;3.00;1.73;;;;;;;18.42;54.99;99246.34;4925048;28;103313;-55
2022/07/07 00:43:12;;;;;;;2.55;1.60;;;;;;;18.37;54.71;99248.63;4925142;28;103002;-56
2022/07/07 00:45:40;;;;;;;2.30;1.40;;;;;;;18.61;54.31;99246.28;4924039;28;102611;-56
2022/07/07 00:48:09;;;;;;;2.92;1.70;;;;;;;18.44;54.41;99249.72;4923545;28;103059;-56
2022/07/07 00:50:37;;;;;;;2.75;1.60;;;;;;;18.27;54.65;99239.81;4921927;28;103329;-55
2022/07/07 00:53:05;;;;;;;1.88;1.30;;;;;;;18.33;54.52;99233.88;4922426;28;103010;-56
2022/07/07 00:55:33;;;;;;;3.40;1.67;;;;;;;18.05;54.88;99232.94;4922546;28;102684;-55
2022/07/07 00:58:01;;;;;;;2.13;1.40;;;;;;;18.33;54.53;99231.19;4925447;28;103929;-55
2022/07/07 01:00:31;;;;;;;2.60;1.63;;;;;;;18.39;54.21;99233.25;4922065;28;103137;-56
2022/07/07 01:02:59;;;;;;;2.10;1.40;;;;;;;18.57;53.47;99228.00;4933811;28;103190;-56
2022/07/07 01:05:29;;;;;;;1.90;1.30;;;;;;;18.60;53.61;99228.56;4924531;28;102627;-55
2022/07/07 01:08:02;;;;;;;1.80;1.37;;;;;;;18.48;53.63;99229.75;4923983;28;104038;-56
2022/07/07 01:10:31;;;;;;;1.95;1.35;;;;;;;18.59;53.44;99218.84;4921872;28;103889;-56
2022/07/07 01:13:02;;;;;;;3.23;1.53;;;;;;;18.49;53.81;99226.09;4923873;28;103223;-55
2022/07/07 01:15:32;;;;;;;1.60;1.50;;;;;;;18.59;53.41;99224.19;4922333;28;103842;-56
2022/07/07 01:18:00;;;;;;;2.03;1.50;;;;;;;18.62;53.18;99221.22;4906395;28;102724;-57
2022/07/07 01:20:28;;;;;;;2.47;1.50;;;;;;;18.64;53.31;99224.56;4922600;28;103510;-57
2022/07/07 01:22:58;;;;;;;1.70;1.50;;;;;;;18.75;53.21;99216.34;4906300;28;103487;-57
2022/07/07 01:25:26;;;;;;;3.30;1.93;;;;;;;18.35;54.83;99221.19;4923598;28;102819;-58
2022/07/07 01:27:54;;;;;;;1.45;1.35;;;;;;;18.54;54.58;99213.09;4923023;28;102629;-55
2022/07/07 01:30:22;;;;;;;1.65;1.25;;;;;;;18.62;54.24;99210.50;4921242;28;103232;-56
2022/07/07 01:32:50;;;;;;;1.80;1.40;;;;;;;18.70;53.69;99210.59;4924245;28;103187;-56
2022/07/07 01:35:18;;;;;;;2.42;1.70;;;;;;;18.60;54.03;99212.50;4922989;28;102697;-56
2022/07/07 01:37:46;;;;;;;1.52;1.42;;;;;;;18.40;55.30;99202.84;4922693;28;103893;-56
2022/07/07 01:40:15;;;;;;;2.85;1.58;;;;;;;18.44;54.84;99207.75;4920365;28;103387;-55
2022/07/07 01:42:44;;;;;;;2.05;1.27;;;;;;;18.64;53.84;99203.16;4905529;28;103389;-56
2022/07/07 01:45:12;;;;;;;1.63;1.30;;;;;;;18.74;53.83;99192.41;4936635;28;102717;-56
2022/07/07 01:47:40;;;;;;;2.57;1.63;;;;;;;18.63;54.15;99193.47;4921724;28;102816;-56
2022/07/07 01:50:09;;;;;;;1.47;1.33;;;;;;;18.72;53.69;99187.22;4923789;28;103590;-56
2022/07/07 01:52:37;;;;;;;1.50;1.40;;;;;;;18.72;54.07;99189.91;4923650;28;103219;-56
2022/07/07 01:55:06;;;;;;;1.75;1.65;;;;;;;18.72;54.44;99184.56;4924433;28;102629;-55
2022/07/07 01:57:36;;;;;;;2.45;1.55;;;;;;;18.78;54.00;99185.78;4924041;28;102796;-56
2022/07/07 02:00:04;;;;;;;1.63;1.48;;;;;;;18.80;54.14;99181.97;4923682;28;103244;-56
2022/07/07 02:02:35;;;;;;;2.45;1.90;;;;;;;18.68;54.55;99190.34;4920016;28;103172;-56
2022/07/07 02:05:04;;;;;;;3.08;1.67;;;;;;;18.58;55.19;99186.88;4923942;28;104093;-55
2022/07/07 02:07:35;;;;;;;2.10;1.67;;;;;;;18.55;54.49;99188.03;4925585;28;102717;-56
2022/07/07 02:10:05;;;;;;;1.73;1.60;;;;;;;18.68;54.15;99185.84;4922863;28;103271;-56
2022/07/07 02:12:33;;;;;;;3.50;2.17;;;;;;;18.48;54.22;99189.59;4924288;28;103190;-56
2022/07/07 02:15:02;;;;;;;2.20;1.70;;;;;;;18.44;54.55;99181.00;4923207;28;102799;-56
2022/07/07 02:17:33;;;;;;;1.93;1.50;;;;;;;18.61;54.13;99187.41;4922482;28;103349;-56
2022/07/07 02:20:01;;;;;;;2.38;1.60;;;;;;;18.61;54.14;99179.38;4922220;28;103314;-55
2022/07/07 02:22:29;;;;;;;2.80;1.70;;;;;;;18.63;54.41;99196.16;4920047;28;103206;-56
2022/07/07 02:24:57;;;;;;;1.73;1.33;;;;;;;18.61;54.50;99191.94;4905926;28;102968;-56
2022/07/07 02:27:24;;;;;;;4.10;2.00;;;;;;;18.59;53.30;99200.09;4923043;28;104771;-58
2022/07/07 02:29:52;;;;;;;2.10;1.70;;;;;;;18.71;53.01;99193.56;4922120;28;104016;-58
2022/07/07 02:32:22;;;;;;;1.40;1.30;;;;;;;18.70;53.18;99191.88;4922396;28;103187;-58
2022/07/07 02:34:50;;;;;;;1.70;1.50;;;;;;;18.72;53.43;99183.72;4921791;28;102601;-58
2022/07/07 02:37:17;;;;;;;1.50;1.40;;;;;;;18.73;53.03;99191.56;4922747;28;103984;-58
2022/07/07 02:39:45;;;;;;;1.63;1.30;;;;;;;18.78;53.21;99189.28;4923348;28;104607;-58
2022/07/07 02:42:13;;;;;;;1.65;1.50;;;;;;;18.67;53.94;99192.16;4924743;28;103293;-58
2022/07/07 02:44:41;;;;;;;2.70;1.50;;;;;;;18.64;54.16;99195.16;4922492;28;102642;-58
2022/07/07 02:47:09;;;;;;;2.05;1.55;;;;;;;18.57;54.31;99185.19;4904885;28;102894;-58
2022/07/07 02:49:38;;;;;;;1.93;1.53;;;;;;;18.55;54.74;99197.91;4922597;28;103254;-58
2022/07/07 02:52:06;;;;;;;1.70;1.60;;;;;;;18.56;54.69;99196.88;4922874;28;103245;-58
2022/07/07 02:54:34;;;;;;;1.60;1.40;;;;;;;18.48;54.67;99194.97;4923983;28;103031;-58
2022/07/07 02:57:02;;;;;;;2.47;1.70;;;;;;;18.48;54.43;99186.94;4924142;28;104530;-58
2022/07/07 02:59:30;;;;;;;1.60;1.42;;;;;;;18.45;54.46;99171.16;4920877;28;103271;-58
2022/07/07 03:01:58;;;;;;;1.52;1.30;;;;;;;18.51;54.84;99181.28;4905779;28;102995;-59
2022/07/07 03:04:28;;;;;;;1.70;1.60;;;;;;;18.53;54.93;99179.28;4901838;28;102668;-58
2022/07/07 03:06:58;;;;;;;2.53;1.65;;;;;;;18.39;55.19;99177.09;4922280;28;102767;-58
2022/07/07 03:09:27;;;;;;;2.17;1.50;;;;;;;18.46;54.77;99181.72;4920755;28;103324;-58
2022/07/07 03:11:58;;;;;;;2.17;1.65;;;;;;;18.44;55.12;99172.16;4925091;28;103287;-59
2022/07/07 03:14:26;;;;;;;2.03;1.45;;;;;;;18.47;54.95;99179.84;4927676;28;102634;-58
2022/07/07 03:16:56;;;;;;;1.70;1.58;;;;;;;18.39;55.55;99177.94;4926194;28;103941;-58
2022/07/07 03:19:24;;;;;;;2.08;1.50;;;;;;;18.38;55.11;99175.41;4919733;28;103298;-59
2022/07/07 03:21:52;;;;;;;2.47;1.50;;;;;;;18.37;55.16;99176.41;4925082;28;103215;-58
2022/07/07 03:24:22;;;;;;;1.87;1.23;;;;;;;18.50;54.35;99179.59;4923971;28;102916;-58
2022/07/07 03:26:50;;;;;;;2.28;1.20;;;;;;;18.53;53.97;99157.88;4908259;28;102680;-57
2022/07/07 03:29:18;;;;;;;1.40;1.30;;;;;;;18.52;54.16;99161.56;4925679;28;103955;-57
2022/07/07 03:31:45;;;;;;;1.30;1.20;;;;;;;18.66;53.17;99160.22;4924178;28;103539;-58
2022/07/07 03:34:14;;;;;;;2.40;1.50;;;;;;;18.58;53.39;99152.09;4924290;28;102577;-59
2022/07/07 03:36:41;;;;;;;1.80;1.33;;;;;;;18.61;53.18;99154.47;4925009;28;102914;-58
2022/07/07 03:39:11;;;;;;;2.58;1.40;;;;;;;18.52;54.68;99146.38;4905042;28;103228;-58
2022/07/07 03:41:41;;;;;;;2.03;1.52;;;;;;;18.67;54.50;99148.50;4907686;28;103287;-59
2022/07/07 03:44:09;;;;;;;2.90;1.42;;;;;;;18.64;53.89;99144.28;4926188;28;102731;-58
2022/07/07 03:46:37;;;;;;;1.38;1.20;;;;;;;18.78;53.78;99141.09;4925585;28;102716;-58
2022/07/07 03:49:06;;;;;;;2.67;1.40;;;;;;;18.84;53.64;99145.84;4924649;28;103437;-58
2022/07/07 03:51:34;;;;;;;3.20;1.50;;;;;;;18.87;53.94;99148.22;4923272;28;103258;-58
2022/07/07 03:54:02;;;;;;;1.50;1.25;;;;;;;18.84;54.15;99140.50;4925275;28;102647;-59
2022/07/07 03:56:32;;;;;;;2.27;1.30;;;;;;;18.88;53.84;99131.19;4924021;28;103055;-59
2022/07/07 03:59:02;;;;;;;2.20;1.27;;;;;;;18.76;53.61;99137.75;4923628;28;103252;-59
2022/07/07 04:01:36;;;;;;;2.60;1.30;;;;;;;18.77;53.53;99128.75;4922245;28;103101;-59
2022/07/07 04:04:11;;;;;;;2.33;1.33;;;;;;;18.43;53.87;99136.53;4908298;28;102947;-59
2022/07/07 04:06:41;;;;;;;2.37;1.30;;;;;;;18.41;54.28;99143.03;4924799;28;102726;-59
2022/07/07 04:09:12;;;;;;;1.50;1.20;;;;;;;18.64;53.69;99133.59;4923499;28;103014;-59
2022/07/07 04:11:42;;;;;;;1.88;1.00;;;;;;;18.83;53.41;99138.84;4925754;28;103224;-58
2022/07/07 04:14:13;;;;;;;2.22;1.15;;;;;;;18.94;52.82;99135.94;4924149;28;102743;-58
2022/07/07 04:16:43;;;;;;;2.33;1.10;;;;;;;18.77;53.73;99134.09;4910258;28;102912;-58
2022/07/07 04:19:12;;;;;;;1.50;1.30;;;;;;;18.92;52.95;99137.06;4925771;28;104509;-59
2022/07/07 04:21:40;;;;;;;2.63;1.50;;;;;;;18.98;53.54;99148.00;4923849;28;103263;-59
2022/07/07 04:24:10;;;;;;;2.40;1.10;;;;;;;19.03;54.17;99145.69;4924232;28;102698;-57
2022/07/07 04:26:38;;;;;;;1.70;1.10;;;;;;;18.93;55.21;99141.44;4923815;28;102754;-56
2022/07/07 04:29:07;;;;;;;1.58;1.00;;;;;;;19.03;54.95;99135.00;4923143;28;104293;-57
2022/07/07 04:31:36;;;;;;;3.72;1.80;;;;;;;18.80;53.70;99139.13;4924112;28;103189;-57
2022/07/07 04:34:05;;;;;;;2.50;1.75;;;;;;;18.85;55.18;99142.19;4926155;28;102619;-56
2022/07/07 04:36:33;;;;;;;1.80;1.30;;;;;;;18.89;55.39;99130.16;4925876;28;102684;-56
2022/07/07 04:39:01;;;;;;;2.72;1.30;;;;;;;18.92;55.41;99126.34;4922517;28;103300;-56
2022/07/07 04:41:29;;;;;;;3.83;1.60;;;;;;;18.97;54.36;99124.06;4923943;28;103202;-56
2022/07/07 04:43:57;;;;;;;2.78;1.40;;;;;;;19.01;54.37;99120.91;4926721;28;102641;-56
2022/07/07 04:46:25;;;;;;;3.83;1.58;;;;;;;19.00;54.52;99135.28;4919438;28;103035;-57
2022/07/07 04:48:55;;;;;;;2.27;1.40;;;;;;;18.98;54.43;99134.63;4917842;28;103499;-57
2022/07/07 04:51:23;;;;;;;1.60;1.05;;;;;;;19.05;54.36;99133.03;4908203;28;103133;-56
2022/07/07 04:53:51;;;;;;;1.95;1.40;;;;;;;19.07;54.73;99127.50;4918572;28;102967;-56
2022/07/07 04:56:19;;;;;;;2.63;1.23;;;;;;;18.99;55.40;99125.59;4921453;28;104467;-57
2022/07/07 04:58:47;;;;;;;2.53;1.47;;;;;;;18.84;56.24;99124.44;4921098;28;103244;-57
2022/07/07 05:01:15;;;;;;;1.60;1.30;;;;;;;18.86;55.92;99121.63;4907364;28;103496;-57
2022/07/07 05:03:43;;;;;;;2.70;1.30;;;;;;;19.00;55.53;99116.56;4921630;28;103187;-57
2022/07/07 05:06:12;;;;;;;2.15;1.48;;;;;;;19.02;55.67;99117.25;4900245;28;102764;-57
2022/07/07 05:08:40;;;;;;;2.55;1.60;;;;;;;18.97;55.66;99119.56;4922702;28;103270;-57
2022/07/07 05:11:15;;;;;;;3.00;1.73;;;;;;;18.98;55.29;99121.22;4923572;28;103190;-57
2022/07/07 05:13:43;;;;;;;1.45;1.25;;;;;;;19.10;55.36;99120.00;4911199;28;104301;-57
2022/07/07 05:16:10;;;;;;;2.05;1.50;;;;;;;19.05;56.04;99116.97;4910246;28;103936;-57
2022/07/07 05:18:38;;;;;;;2.78;1.52;;;;;;;19.02;56.36;99114.59;4919383;28;103301;-57
2022/07/07 05:21:07;;;;;;;3.65;1.75;;;;;;;19.04;57.21;99125.97;4920339;28;103344;-57
2022/07/07 05:23:36;;;;;;;1.83;1.20;;;;;;;19.27;55.29;99122.81;4920382;28;102804;-55
2022/07/07 05:26:04;;;;;;;2.03;1.60;;;;;;;19.01;55.05;99120.91;4921274;28;102597;-56
2022/07/07 05:28:33;;;;;;;2.47;1.48;;;;;;;19.29;54.79;99128.84;4907293;28;103385;-57
2022/07/07 05:31:02;;;;;;;3.47;1.42;;;;;;;19.48;54.37;99128.72;4920362;28;103187;-57
2022/07/07 05:33:33;;;;;;;2.47;1.30;;;;;;;19.43;53.38;99125.63;4919967;28;102720;-57
2022/07/07 05:36:01;;;;;;;4.63;1.30;;;;;;;19.26;53.60;99123.78;4918722;28;102745;-57
2022/07/07 05:38:29;;;;;;;1.42;1.08;;;;;;;19.58;54.07;99118.72;4914305;28;103261;-58
2022/07/07 05:41:02;;;;;;;2.63;1.30;;;;;;;19.84;53.58;99110.66;4919366;28;103245;-58
2022/07/07 05:43:30;;;;;;;3.07;1.20;;;;;;;19.86;54.33;99109.50;4920576;28;102781;-57
2022/07/07 05:45:58;;;;;;;2.92;1.30;;;;;;;19.83;53.81;99101.78;4922476;28;102689;-56
2022/07/07 05:48:26;;;;;;;3.40;1.40;;;;;;;19.80;53.74;99096.75;4923044;28;103294;-56
2022/07/07 05:50:54;;;;;;;2.00;1.20;;;;;;;19.89;53.29;99101.16;4909082;28;102997;-56
2022/07/07 05:53:22;;;;;;;2.97;1.20;;;;;;;20.09;53.06;99102.59;4921551;28;102662;-56
2022/07/07 05:55:52;;;;;;;3.03;1.45;;;;;;;20.16;52.13;99100.94;4922985;28;103040;-57
2022/07/07 05:58:22;;;;;;;1.92;1.08;;;;;;;20.37;51.03;99097.00;4922875;28;103439;-56
2022/07/07 06:00:51;;;;;;;3.10;1.20;;;;;;;20.35;51.15;99099.84;4920745;28;103189;-56
2022/07/07 06:03:20;;;;;;;1.55;1.05;;;;;;;20.61;50.95;99097.91;4923638;28;102590;-56
2022/07/07 06:05:48;;;;;;;2.80;1.13;;;;;;;20.79;49.99;99104.00;4923314;28;104248;-57
2022/07/07 06:08:17;;;;;;;2.40;1.25;;;;;;;20.43;50.30;99104.41;4923683;28;103250;-56
2022/07/07 06:10:46;;;;;;;2.78;1.20;;;;;;;20.64;49.96;99096.75;4910002;28;103026;-56
2022/07/07 06:13:14;;;;;;;1.58;1.17;;;;;;;20.88;48.83;99094.09;4924179;28;102637;-57
2022/07/07 06:15:43;;;;;;;1.75;1.10;;;;;;;21.15;49.15;99091.13;4923008;28;102667;-57
2022/07/07 06:18:11;;;;;;;1.63;1.13;;;;;;;21.14;48.98;99102.88;4918193;28;103436;-58
2022/07/07 06:20:39;;;;;;;2.67;1.33;;;;;;;21.12;48.88;99096.81;4918946;28;103265;-58
2022/07/07 06:23:08;;;;;;;2.58;1.23;;;;;;;21.30;49.44;99094.81;4922820;28;102628;-58
2022/07/07 06:25:36;;;;;;;2.28;1.20;;;;;;;21.38;48.39;99097.50;4920904;28;103929;-59
2022/07/07 06:28:04;;;;;;;2.42;1.17;;;;;;;20.99;48.77;99084.88;4921064;28;103336;-59
2022/07/07 06:30:32;;;;;;;2.40;1.20;;;;;;;21.41;47.68;99084.72;4921306;28;103259;-59
2022/07/07 06:33:01;;;;;;;2.30;1.10;;;;;;;21.46;48.08;99088.56;4922012;28;102608;-59
2022/07/07 06:35:29;;;;;;;1.85;1.05;;;;;;;21.59;48.14;99083.50;4923429;28;103932;-59
2022/07/07 06:38:00;;;;;;;4.17;1.47;;;;;;;21.54;48.74;99087.72;4921559;28;104279;-59
2022/07/07 06:40:30;;;;;;;2.67;1.20;;;;;;;21.71;48.09;99092.03;4923418;28;103214;-59
2022/07/07 06:43:01;;;;;;;2.08;1.10;;;;;;;21.97;48.07;99087.31;4920187;28;102720;-60
2022/07/07 06:45:30;;;;;;;1.73;1.00;;;;;;;21.82;47.94;99078.22;4908094;28;103997;-59
2022/07/07 06:47:58;;;;;;;1.98;1.30;;;;;;;21.88;47.61;99082.97;4925227;28;103259;-59
2022/07/07 06:50:27;;;;;;;4.55;1.65;;;;;;;21.28;48.69;99083.38;4924221;28;103198;-59
2022/07/07 06:52:55;;;;;;;2.80;1.40;;;;;;;21.54;48.68;99075.13;4925779;28;102623;-59
2022/07/07 06:55:23;;;;;;;3.78;1.65;;;;;;;21.62;48.58;99085.00;4923075;28;102854;-59
2022/07/07 06:57:51;;;;;;;2.67;1.30;;;;;;;22.03;48.03;99086.63;4917992;28;103138;-59
2022/07/07 07:00:21;;;;;;;2.33;1.50;;;;;;;22.15;47.86;99069.06;4926221;28;103155;-60
2022/07/07 07:02:49;;;;;;;2.33;1.17;;;;;;;22.34;48.13;99083.94;4925572;28;102796;-59
2022/07/07 07:05:20;;;;;;;4.43;1.60;;;;;;;22.04;48.21;99088.28;4926783;28;102897;-60
2022/07/07 07:07:49;;;;;;;3.70;1.47;;;;;;;22.49;47.87;99085.69;4922394;28;103323;-60
2022/07/07 07:10:17;;;;;;;2.40;1.27;;;;;;;22.67;47.22;99088.16;4921333;28;103202;-60
2022/07/07 07:12:45;;;;;;;4.00;1.67;;;;;;;22.40;47.93;99089.44;4925423;28;102869;-60
2022/07/07 07:15:17;;;;;;;4.28;1.80;;;;;;;22.11;48.52;99100.03;4925749;28;102631;-60
2022/07/07 07:17:45;;;;;;;2.73;1.50;;;;;;;22.12;48.76;99096.31;4927166;28;103411;-60
2022/07/07 07:20:19;;;;;;;2.33;1.30;;;;;;;22.50;48.25;99090.09;4925622;28;103237;-60
2022/07/07 07:22:47;;;;;;;2.92;1.50;;;;;;;22.56;48.49;99093.06;4926376;28;102662;-60
2022/07/07 07:25:17;;;;;;;3.15;1.60;;;;;;;22.70;48.43;99097.72;4923304;28;103085;-60
2022/07/07 07:27:45;;;;;;;2.28;1.33;;;;;;;22.37;48.38;99095.19;4925049;28;103752;-60
2022/07/07 07:30:15;;;;;;;2.63;1.30;;;;;;;22.22;48.72;99086.19;4924611;28;103291;-61
2022/07/07 07:32:43;;;;;;;4.07;1.73;;;;;;;22.03;49.40;99097.38;4921172;28;102911;-60
2022/07/07 07:35:12;;;;;;;2.10;1.23;;;;;;;22.42;49.54;99098.22;4928018;28;103052;-61
2022/07/07 07:37:40;;;;;;;5.03;1.30;;;;;;;22.42;48.06;99098.22;4925129;28;103258;-60
2022/07/07 07:40:09;;;;;;;4.32;1.67;;;;;;;22.51;48.60;99107.91;4915846;28;103212;-61
2022/07/07 07:42:40;;;;;;;3.93;1.40;;;;;;;22.59;48.86;99114.25;4923723;28;103047;-60
2022/07/07 07:45:12;;;;;;;3.77;1.27;;;;;;;22.27;48.98;99115.25;4923599;28;102924;-60
2022/07/07 07:47:42;;;;;;;3.63;1.40;;;;;;;22.26;49.16;99117.09;4919133;28;103353;-59
2022/07/07 07:50:12;;;;;;;2.60;1.58;;;;;;;22.23;49.03;99125.53;4923465;28;103695;-60
2022/07/07 07:52:41;;;;;;;3.17;1.50;;;;;;;22.21;48.36;99130.25;4924610;28;102615;-60
2022/07/07 07:55:11;;;;;;;3.90;1.90;;;;;;;21.76;49.52;99135.38;4907118;28;103063;-60
2022/07/07 07:57:41;;;;;;;4.22;1.70;;;;;;;21.95;49.05;99138.56;4923119;28;104043;-60
2022/07/07 08:00:12;;;;;;;2.40;1.60;;;;;;;21.93;49.03;99134.38;4917283;28;103205;-60
2022/07/07 08:02:40;;;;;;;2.13;1.60;;;;;;;21.72;49.92;99142.13;4924356;28;102680;-59
2022/07/07 08:05:10;;;;;;;3.70;1.48;;;;;;;21.71;50.13;99124.31;4919242;28;103699;-59
2022/07/07 08:07:38;;;;;;;3.42;1.75;;;;;;;21.50;49.96;99137.47;4903877;28;103268;-60
2022/07/07 08:10:08;;;;;;;3.13;1.90;;;;;;;21.59;49.75;99131.03;4918341;28;103258;-61
2022/07/07 08:12:36;;;;;;;3.50;1.40;;;;;;;22.07;48.99;99120.22;4922614;28;102852;-61
2022/07/07 08:15:08;;;;;;;2.10;1.33;;;;;;;22.07;49.08;99106.75;4919105;28;103071;-60
2022/07/07 08:17:36;;;;;;;2.40;1.40;;;;;;;21.88;49.83;99104.47;4919831;28;103279;-60
2022/07/07 08:20:05;;;;;;;4.85;1.80;;;;;;;22.18;49.77;99098.31;4917361;28;103251;-60
2022/07/07 08:22:33;;;;;;;2.50;1.80;;;;;;;22.28;50.62;99085.50;4919880;28;102811;-60
2022/07/07 08:25:04;;;;;;;3.15;1.67;;;;;;;22.07;50.00;99093.31;4919836;28;102701;-60
2022/07/07 08:27:32;;;;;;;4.25;1.90;;;;;;;22.38;50.15;99101.41;4919951;28;103306;-60
2022/07/07 08:30:05;;;;;;;5.22;1.65;;;;;;;22.58;49.41;99102.66;4919566;28;103216;-60
2022/07/07 08:32:34;;;;;;;3.75;1.80;;;;;;;22.48;50.17;99102.03;4920994;28;102728;-60
2022/07/07 08:35:03;;;;;;;3.22;2.28;;;;;;;22.29;51.54;99102.44;4919539;28;103092;-60
2022/07/07 08:37:31;;;;;;;5.80;2.13;;;;;;;21.75;51.71;99109.53;4920324;28;103276;-59
2022/07/07 08:39:59;;;;;;;3.23;2.37;;;;;;;21.79;52.15;99109.00;4921397;28;103204;-58
2022/07/07 08:42:27;;;;;;;3.95;2.35;;;;;;;22.17;51.76;99110.09;4919772;28;102659;-58
2022/07/07 08:44:55;;;;;;;5.88;2.08;;;;;;;22.07;51.94;99113.97;4918420;28;102870;-59
2022/07/07 08:47:25;;;;;;;5.80;1.92;;;;;;;22.39;51.80;99103.94;4917718;28;104153;-61
2022/07/07 08:49:54;;;;;;;3.97;2.20;;;;;;;22.59;51.23;99104.34;4917884;28;103175;-62
2022/07/07 08:52:22;;;;;;;6.23;2.43;;;;;;;22.31;52.63;99095.06;4917744;28;102869;-60
2022/07/07 08:54:50;;;;;;;5.63;2.80;;;;;;;22.65;52.27;99090.19;4919455;28;103978;-61
2022/07/07 08:57:19;;;;;;;4.40;2.75;;;;;;;22.32;52.38;99081.41;4919336;28;103317;-59
2022/07/07 08:59:49;;;;;;;5.73;3.13;;;;;;;22.29;53.22;99089.84;4918343;28;103534;-58
2022/07/07 09:02:17;;;;;;;3.55;2.80;;;;;;;23.22;51.81;99085.19;4916940;28;103031;-59
2022/07/07 09:04:48;;;;;;;4.60;2.47;;;;;;;23.49;51.94;99086.53;4917700;28;103940;-58
2022/07/07 09:07:18;;;;;;;3.75;1.90;;;;;;;23.20;51.70;99087.25;4922926;28;103277;-59
2022/07/07 09:09:49;;;;;;;2.13;1.40;;;;;;;22.60;52.99;99097.09;4922451;28;103353;-58
2022/07/07 09:12:18;;;;;;;4.40;1.25;;;;;;;22.80;52.79;99096.47;4903397;28;102770;-59
2022/07/07 09:14:49;;;;;;;2.83;1.33;;;;;;;22.53;53.88;99095.13;4925939;28;103122;-58
2022/07/07 09:17:26;;;;;;;2.50;1.45;;;;;;;22.71;54.17;99107.50;4924403;28;104093;-59
2022/07/07 09:20:03;;;;;;;1.95;1.30;;;;;;;22.66;54.21;99109.88;4922858;28;103313;-59
2022/07/07 09:22:49;;;;;;;2.95;1.25;;;;;;;21.95;55.37;99116.22;4923325;28;102724;-60
2022/07/07 09:25:19;;;;;;;5.97;1.90;;;;;;;21.31;57.76;99128.72;4925302;28;102977;-59
2022/07/07 09:27:53;;;;;;;2.72;1.92;;;;;;;21.69;57.19;99115.59;4936779;28;103400;-59
2022/07/07 09:30:31;;;;;;;4.10;2.20;;;;;;;22.03;56.37;99113.50;4907037;28;103214;-59
2022/07/07 09:33:00;;;;;;;4.18;2.05;;;;;;;22.09;56.65;99120.88;4922818;28;102581;-60
2022/07/07 09:38:22;;;;;;;3.30;1.80;;;;;;;22.21;56.40;99106.03;4921226;28;103026;-61
2022/07/07 09:41:03;;;;;;;3.70;1.98;;;;;;;22.36;56.36;99098.06;4922197;28;103002;-60
2022/07/07 09:43:33;;;;;;;3.07;1.60;;;;;;;22.44;55.83;99123.09;4922045;28;103225;-60
2022/07/07 09:46:13;;;;;;;3.33;1.60;;;;;;;21.72;57.62;99131.38;4907996;28;103123;-60
2022/07/07 09:48:45;;;;;;;2.38;1.85;;;;;;;21.78;58.30;99136.06;4922220;28;103151;-59
2022/07/07 09:51:18;;;;;;;4.55;1.98;;;;;;;22.02;58.00;99132.50;4922396;28;102989;-61
2022/07/07 09:54:03;;;;;;;4.00;1.67;;;;;;;21.93;58.01;99142.44;4922065;28;102705;-60
2022/07/07 09:56:36;;;;;;;2.55;1.60;;;;;;;22.26;56.15;99144.00;4922015;28;103457;-61
2022/07/07 09:59:16;;;;;;;3.30;1.60;;;;;;;21.54;57.74;99133.41;4923655;28;103515;-59
2022/07/07 10:01:48;;;;;;;4.00;1.60;;;;;;;21.34;59.55;99136.44;4901566;28;102978;-59
2022/07/07 10:04:22;;;;;;;2.08;1.70;;;;;;;21.78;58.06;99136.06;4919003;28;102743;-59
2022/07/07 10:06:57;;;;;;;4.25;1.88;;;;;;;22.16;57.31;99135.31;4908983;28;102981;-59
2022/07/07 10:09:27;;;;;;;2.08;1.58;;;;;;;23.12;55.33;99133.13;4919203;28;103306;-59
2022/07/07 10:11:56;;;;;;;1.80;1.50;;;;;;;23.33;54.41;99135.97;4919058;28;103213;-59
2022/07/07 10:14:33;;;;;;;2.07;1.83;;;;;;;23.21;54.39;99140.16;4919980;28;102954;-60
2022/07/07 10:17:04;;;;;;;2.30;1.70;;;;;;;23.26;55.09;99134.19;4918633;28;104044;-59
2022/07/07 10:19:32;;;;;;;3.50;1.97;;;;;;;23.81;54.65;99141.97;4922304;28;103326;-59
2022/07/07 10:22:03;;;;;;;4.85;2.00;;;;;;;23.52;53.31;99146.28;4923587;28;103204;-59
2022/07/07 10:24:33;;;;;;;8.27;4.50;;;;;;;23.62;53.20;99138.81;4923020;28;102869;-59
2022/07/07 10:27:03;;;;;;;9.80;4.63;;;;;;;23.64;53.53;99139.44;4924603;28;102933;-60
2022/07/07 10:29:38;;;;;;;3.10;2.03;;;;;;;23.43;54.03;99142.00;4920995;28;103567;-61
2022/07/07 10:32:08;;;;;;;2.20;1.90;;;;;;;23.60;53.83;99127.38;4923984;28;103061;-60
2022/07/07 10:34:39;;;;;;;1.73;1.63;;;;;;;24.20;52.73;99129.09;4905179;28;103386;-60
2022/07/07 10:37:10;;;;;;;2.90;1.90;;;;;;;23.81;53.27;99144.66;4914799;28;103900;-61
2022/07/07 10:39:46;;;;;;;3.13;2.03;;;;;;;23.81;53.93;99144.66;4917815;28;103324;-60
2022/07/07 10:42:45;;;;;;;2.92;1.70;;;;;;;23.24;54.45;99137.09;4908753;28;103848;-60
2022/07/07 10:45:15;;;;;;;1.92;1.70;;;;;;;23.43;54.41;99136.63;4894118;28;103036;-60
2022/07/07 10:47:48;;;;;;;2.53;1.77;;;;;;;23.45;53.92;99148.06;4917473;28;102847;-60
2022/07/07 10:50:28;;;;;;;3.17;1.70;;;;;;;23.36;54.46;99145.56;4915700;28;103034;-60
2022/07/07 10:52:58;;;;;;;2.95;1.73;;;;;;;23.44;54.26;99142.81;4934176;28;103316;-60
2022/07/07 10:55:57;;;;;;;2.90;1.70;;;;;;;23.35;54.45;99150.16;4935035;28;102939;-60
2022/07/07 10:59:00;;;;;;;2.25;1.60;;;;;;;23.22;54.28;99151.75;4935721;28;103763;-60
2022/07/07 11:01:29;;;;;;;2.30;1.95;;;;;;;23.25;54.47;99156.78;4935082;28;103309;-60
2022/07/07 11:03:58;;;;;;;3.23;1.70;;;;;;;22.79;55.85;99158.63;4927353;28;102971;-60
2022/07/07 11:07:10;;;;;;;2.40;1.60;;;;;;;22.84;55.49;99167.00;4937941;28;102885;-60
2022/07/07 11:09:57;;;;;;;1.52;1.38;;;;;;;22.97;56.96;99159.16;4936183;28;104095;-61
2022/07/07 11:12:38;;;;;;;3.20;1.33;;;;;;;22.88;57.17;99157.53;4933565;28;103082;-61
2022/07/07 11:15:34;;;;;;;3.42;1.40;;;;;;;23.03;56.24;99156.59;4923685;28;103248;-60
2022/07/07 11:18:10;;;;;;;2.72;1.40;;;;;;;23.07;55.67;99160.59;4950099;28;102750;-60
2022/07/07 11:20:55;;;;;;;2.65;1.40;;;;;;;23.27;54.42;99155.56;4936952;28;103495;-60
2022/07/07 11:23:26;;;;;;;2.45;1.35;;;;;;;23.09;54.13;99160.44;4934226;28;103173;-60
2022/07/07 11:25:58;;;;;;;2.97;1.60;;;;;;;22.70;55.69;99160.53;4937712;28;103247;-60
2022/07/07 11:28:28;;;;;;;2.55;1.50;;;;;;;22.94;55.57;99162.22;4935736;28;102619;-60
2022/07/07 11:31:07;;;;;;;2.53;1.60;;;;;;;23.08;54.18;99164.97;4937855;28;102859;-60
2022/07/07 11:33:36;;;;;;;2.57;1.50;;;;;;;22.67;55.24;99160.03;4934795;28;103259;-60
2022/07/07 11:36:17;;;;;;;2.33;1.55;;;;;;;22.72;55.85;99161.16;4940735;28;103236;-60
2022/07/07 11:38:47;;;;;;;2.97;1.70;;;;;;;22.82;55.08;99169.03;4909572;28;102826;-60
2022/07/07 11:41:20;;;;;;;5.25;1.75;;;;;;;22.52;56.13;99163.44;4938312;28;103054;-61